Lakefront Airport
KNEW : now visible

Airfield :











YOU CAN JOIN US ON...

 
LOGIN :

Register | Disclaimer

   EN    FR    IT 

 









Legend :    VFR   Marginal VFR   IFR   Intensive IFR   Very Intensive IFR
Visi :
Ceiling :
>= 8 km
>= 3000ft
5 to 8 km
1000 to 3000 ft
1500m to 5 km
500 to 1000 ft
800 to 1500m
200 to 500 ft
< 800m
< 200 ft
Symbols :   Thunderstorms  Fog  Heavy snow  Heavy precipitations  Wind > 20 kt






- Airport Elevation : 8 ft


KNEW - Lakefront

CURRENT METAR :
  • 280053Z AUTO 33016KT 10SM CLR 28/15 A2991 RMK AO2 SLP122 T02780150

EXPIRED METARs :
  • 272353Z AUTO 32020KT 10SM CLR 29/16 A2990 RMK AO2 SLP118 T02890161 10306 20289 55005
  • 272253Z AUTO 32014KT 10SM CLR 30/16 A2989 RMK AO2 SLP116 T03000156

TAF KNEW
Valid from the 28 at 00:00 until the 29 at 00:00 UTC


272322Z 2800/2824 32012KT P6SM SKC
FM280400 01010KT P6SM SKC
FM281700 36006KT P6SM SKC
KZHU FIR / North America



MET'MAP, your aeronautical weather chart ! - Copyright ORBIFLY December 2007 - Disclaimer

ORBIFLY MET'MAP TEAM :

Programming & Development : Alexandra Zaïnal
Original concept : Baudouin d'Aumeries
Technical & hardware support : Manuel Goepfert
Assistance : Marc-Olivier Méhu

Contact : metmap@orbifly.com




SOURCES & CREDITS :

   NOAA       Earth
Advisory